createdAt,value
2022-12-25T00:01:51.758Z,7.90
2022-12-25T00:04:19.184Z,8.40
2022-12-25T00:06:46.626Z,8.20
2022-12-25T00:09:13.979Z,7.80
2022-12-25T00:11:41.325Z,8.10
2022-12-25T00:14:08.727Z,8.50
2022-12-25T00:16:36.130Z,8.40
2022-12-25T00:19:03.737Z,8.50
2022-12-25T00:21:31.839Z,7.50
2022-12-25T00:23:59.863Z,8.10
2022-12-25T00:26:28.301Z,7.90
2022-12-25T00:28:57.978Z,7.80
2022-12-25T00:31:26.469Z,8.40
2022-12-25T00:33:54.017Z,8.40
2022-12-25T00:36:22.748Z,8.00
2022-12-25T00:38:50.109Z,8.20
2022-12-25T00:41:40.388Z,8.00
2022-12-25T00:44:10.290Z,8.00
2022-12-25T00:46:37.749Z,8.60
2022-12-25T00:49:05.952Z,8.10
2022-12-25T00:51:33.623Z,7.20
2022-12-25T00:54:01.117Z,8.80
2022-12-25T00:56:28.713Z,8.40
2022-12-25T00:58:56.161Z,8.70
2022-12-25T01:01:23.558Z,8.00
2022-12-25T01:03:50.963Z,8.50
2022-12-25T01:06:18.290Z,8.60
2022-12-25T01:09:04.291Z,8.30
2022-12-25T01:11:32.274Z,9.50
2022-12-25T01:13:59.671Z,8.60
2022-12-25T01:16:28.310Z,8.40
2022-12-25T01:18:56.406Z,8.50
2022-12-25T01:21:24.259Z,8.00
2022-12-25T01:23:53.132Z,8.60
2022-12-25T01:26:25.025Z,9.20
2022-12-25T01:28:53.403Z,8.00
2022-12-25T01:31:23.641Z,8.00
2022-12-25T01:33:51.273Z,7.60
2022-12-25T01:36:25.671Z,8.60
2022-12-25T01:38:54.504Z,8.30
2022-12-25T01:41:25.501Z,9.00
2022-12-25T01:44:01.501Z,9.40
2022-12-25T01:46:30.851Z,8.40
2022-12-25T01:49:08.380Z,8.00
2022-12-25T01:52:02.678Z,7.90
2022-12-25T01:54:43.178Z,9.00
2022-12-25T01:57:22.960Z,9.00
2022-12-25T01:59:50.641Z,8.60
2022-12-25T02:02:18.383Z,8.20
2022-12-25T02:04:55.796Z,9.00
2022-12-25T02:07:27.052Z,9.10
2022-12-25T02:09:54.527Z,9.40
2022-12-25T02:12:29.762Z,9.20
2022-12-25T02:15:05.671Z,8.40
2022-12-25T02:18:25.141Z,8.80
2022-12-25T02:21:12.790Z,8.20
2022-12-25T02:24:18.002Z,8.50
2022-12-25T02:27:54.789Z,7.50
2022-12-25T02:30:22.482Z,8.10
2022-12-25T02:33:19.055Z,8.40
2022-12-25T02:35:51.496Z,7.70
2022-12-25T02:39:04.478Z,8.50
2022-12-25T02:41:37.496Z,8.30
2022-12-25T02:44:28.648Z,7.60
2022-12-25T02:47:15.151Z,8.10
2022-12-25T02:50:02.104Z,8.50
2022-12-25T02:52:49.479Z,9.30
2022-12-25T02:55:44.734Z,8.80
2022-12-25T02:58:36.748Z,9.10
2022-12-25T03:01:39.083Z,9.50
2022-12-25T03:04:30.807Z,9.30
2022-12-25T03:09:58.164Z,9.00
2022-12-25T03:12:49.494Z,9.40
2022-12-25T03:15:36.541Z,10.90
2022-12-25T03:18:08.126Z,9.80
2022-12-25T03:20:55.651Z,9.80
2022-12-25T03:23:48.556Z,10.20
2022-12-25T03:26:35.698Z,9.60
2022-12-25T03:29:03.149Z,10.10
2022-12-25T03:31:53.883Z,9.50
2022-12-25T03:35:11.260Z,10.70
2022-12-25T03:38:28.253Z,10.50
2022-12-25T03:41:40.982Z,12.20
2022-12-25T03:44:47.095Z,10.10
2022-12-25T03:47:37.146Z,10.60
2022-12-25T03:50:41.455Z,10.00
2022-12-25T03:53:35.747Z,10.20
2022-12-25T03:56:23.178Z,11.70
2022-12-25T03:59:16.496Z,10.30
2022-12-25T04:02:05.934Z,10.50
2022-12-25T04:04:52.131Z,10.80
2022-12-25T04:07:38.398Z,12.00
2022-12-25T04:10:25.707Z,11.70
2022-12-25T04:13:11.951Z,11.20
2022-12-25T04:15:58.125Z,11.20
2022-12-25T04:18:43.730Z,12.10
2022-12-25T04:21:29.976Z,12.60
2022-12-25T04:24:15.781Z,12.10
2022-12-25T04:27:01.915Z,11.80
2022-12-25T04:29:47.652Z,11.70
2022-12-25T04:32:33.628Z,12.30
2022-12-25T04:35:19.530Z,12.10
2022-12-25T04:37:46.891Z,12.50
2022-12-25T04:40:14.520Z,13.10
2022-12-25T04:42:41.882Z,11.30
2022-12-25T04:45:10.197Z,11.80
2022-12-25T04:47:38.108Z,11.30
2022-12-25T04:50:06.324Z,12.00
2022-12-25T04:52:39.034Z,11.40
2022-12-25T04:55:07.902Z,11.30
2022-12-25T04:57:35.756Z,11.10
2022-12-25T05:00:05.791Z,11.60
2022-12-25T05:02:33.999Z,11.10
2022-12-25T05:05:01.629Z,11.90
2022-12-25T05:07:29.047Z,11.20
2022-12-25T05:09:56.421Z,11.60
2022-12-25T05:12:23.768Z,11.80
2022-12-25T05:14:51.083Z,11.50
2022-12-25T05:17:18.692Z,10.00
2022-12-25T05:19:46.175Z,10.80
2022-12-25T05:22:13.637Z,11.30
2022-12-25T05:24:41.245Z,9.50
2022-12-25T05:27:08.967Z,11.70
2022-12-25T05:29:36.314Z,9.90
2022-12-25T05:32:03.899Z,10.00
2022-12-25T05:34:31.368Z,9.60
2022-12-25T05:36:58.777Z,9.50
2022-12-25T05:39:26.190Z,10.60
2022-12-25T05:41:53.564Z,9.20
2022-12-25T05:44:21.091Z,9.70
2022-12-25T05:46:48.454Z,8.90
2022-12-25T05:49:16.667Z,9.50
2022-12-25T05:51:44.349Z,9.00
2022-12-25T05:54:11.794Z,9.70
2022-12-25T05:56:39.227Z,9.30
2022-12-25T05:59:06.617Z,9.40
2022-12-25T06:01:34.123Z,9.70
2022-12-25T06:04:04.582Z,8.60
2022-12-25T06:06:34.597Z,9.70
2022-12-25T06:09:02.017Z,8.50
2022-12-25T06:11:29.405Z,8.40
2022-12-25T06:13:56.853Z,9.30
2022-12-25T06:16:24.301Z,9.30
2022-12-25T06:18:52.271Z,8.10
2022-12-25T06:21:19.856Z,8.30
2022-12-25T06:23:47.547Z,8.20
2022-12-25T06:26:18.435Z,8.30
2022-12-25T06:28:46.891Z,8.30
2022-12-25T06:31:22.385Z,7.40
2022-12-25T06:33:50.403Z,7.50
2022-12-25T06:36:22.264Z,7.30
2022-12-25T06:38:50.108Z,7.10
2022-12-25T06:41:23.937Z,6.70
2022-12-25T06:43:57.251Z,6.60
2022-12-25T06:46:28.442Z,6.30
2022-12-25T06:48:57.437Z,6.60
2022-12-25T06:51:28.390Z,6.30
2022-12-25T06:53:56.626Z,5.80
2022-12-25T06:56:28.544Z,6.30
2022-12-25T06:59:02.703Z,6.20
2022-12-25T07:01:37.398Z,7.10
2022-12-25T07:04:11.092Z,5.90
2022-12-25T07:06:38.479Z,5.40
2022-12-25T07:09:05.926Z,5.20
2022-12-25T07:11:33.301Z,6.30
2022-12-25T07:14:00.659Z,5.50
2022-12-25T07:16:28.091Z,4.90
2022-12-25T07:18:55.540Z,5.20
2022-12-25T07:21:22.927Z,5.20
2022-12-25T07:23:50.631Z,4.80
2022-12-25T07:26:18.566Z,5.40
2022-12-25T07:28:46.132Z,5.80
2022-12-25T07:31:15.905Z,6.10
2022-12-25T07:33:44.607Z,5.80
2022-12-25T07:36:13.026Z,5.30
2022-12-25T07:38:42.904Z,5.30
2022-12-25T07:41:13.094Z,4.90
2022-12-25T07:43:42.933Z,4.80
2022-12-25T07:46:11.410Z,5.30
2022-12-25T07:48:38.957Z,6.00
2022-12-25T07:51:11.802Z,5.00
2022-12-25T07:53:39.857Z,5.00
2022-12-25T07:56:13.023Z,5.40
2022-12-25T07:58:41.080Z,4.60
2022-12-25T08:01:20.210Z,5.00
2022-12-25T08:04:02.652Z,5.60
2022-12-25T08:06:34.340Z,5.10
2022-12-25T08:09:08.617Z,4.90
2022-12-25T08:11:37.190Z,4.70
2022-12-25T08:14:09.140Z,5.30
2022-12-25T08:16:39.798Z,5.00
2022-12-25T08:19:09.227Z,4.70
2022-12-25T08:21:37.886Z,4.60
2022-12-25T08:24:05.645Z,4.70
2022-12-25T08:26:33.165Z,5.20
2022-12-25T08:29:00.586Z,4.30
2022-12-25T08:31:30.363Z,5.30
2022-12-25T08:33:59.149Z,4.70
2022-12-25T08:36:27.318Z,5.80
2022-12-25T08:39:02.142Z,4.50
2022-12-25T08:41:32.044Z,5.10
2022-12-25T08:43:59.369Z,5.00
2022-12-25T08:46:26.796Z,4.40
2022-12-25T08:48:55.006Z,4.60
2022-12-25T08:51:24.831Z,4.80
2022-12-25T08:53:58.873Z,4.80
2022-12-25T08:56:26.520Z,4.80
2022-12-25T08:58:53.910Z,5.10
2022-12-25T09:01:22.261Z,4.60
2022-12-25T09:03:49.757Z,4.80
2022-12-25T09:06:17.455Z,5.10
2022-12-25T09:08:49.018Z,4.80
2022-12-25T09:11:19.551Z,4.70
2022-12-25T09:13:48.434Z,5.60
2022-12-25T09:16:20.680Z,5.40
2022-12-25T09:18:49.115Z,5.10
2022-12-25T09:21:17.689Z,5.10
2022-12-25T09:23:45.561Z,4.80
2022-12-25T09:26:17.424Z,5.40
2022-12-25T09:31:19.087Z,4.50
2022-12-25T09:33:46.557Z,4.60
2022-12-25T09:36:14.170Z,5.20
2022-12-25T09:38:41.623Z,4.40
2022-12-25T09:41:34.291Z,5.40
2022-12-25T09:44:12.048Z,5.30
2022-12-25T09:46:55.321Z,5.10
2022-12-25T09:49:56.248Z,5.20
2022-12-25T09:52:35.343Z,5.20
2022-12-25T09:55:19.699Z,4.20
2022-12-25T09:57:55.866Z,5.20
2022-12-25T10:00:27.570Z,4.30
2022-12-25T10:03:26.589Z,4.80
2022-12-25T10:06:12.332Z,5.10
2022-12-25T10:09:10.264Z,5.20
2022-12-25T10:11:56.111Z,5.20
2022-12-25T10:14:57.309Z,5.20
2022-12-25T10:18:06.631Z,5.60
2022-12-25T10:20:50.685Z,5.00
2022-12-25T10:23:25.779Z,5.30
2022-12-25T10:25:53.890Z,4.50
2022-12-25T10:28:33.859Z,3.90
2022-12-25T10:31:24.000Z,4.20
2022-12-25T10:33:54.204Z,4.20
2022-12-25T10:36:27.779Z,4.20
2022-12-25T10:38:56.150Z,4.40
2022-12-25T10:42:11.442Z,3.90
2022-12-25T10:44:39.006Z,4.30
2022-12-25T10:47:06.750Z,4.70
2022-12-25T10:49:39.436Z,4.20
2022-12-25T10:52:25.806Z,4.50
2022-12-25T10:54:54.190Z,3.80
2022-12-25T10:57:25.143Z,4.20
2022-12-25T10:59:57.520Z,3.80
2022-12-25T11:02:35.624Z,4.30
2022-12-25T11:05:08.859Z,3.60
2022-12-25T11:07:46.723Z,4.30
2022-12-25T11:10:38.497Z,4.60
2022-12-25T11:13:08.566Z,4.40
2022-12-25T11:15:48.433Z,4.40
2022-12-25T11:18:22.773Z,4.30
2022-12-25T11:20:54.996Z,3.90
2022-12-25T11:23:25.749Z,4.20
2022-12-25T11:26:06.551Z,4.70
2022-12-25T11:28:38.061Z,4.50
2022-12-25T11:31:19.291Z,4.00
2022-12-25T11:33:55.789Z,5.10
2022-12-25T11:36:43.620Z,4.60
2022-12-25T11:39:37.463Z,4.40
2022-12-25T11:42:32.528Z,3.90
2022-12-25T11:45:12.252Z,4.20
2022-12-25T11:47:52.129Z,3.90
2022-12-25T11:50:35.715Z,3.90
2022-12-25T11:53:07.964Z,3.70
2022-12-25T11:55:44.478Z,4.10
2022-12-25T11:58:23.097Z,3.60
2022-12-25T12:00:54.421Z,4.30
2022-12-25T12:06:30.213Z,4.40
2022-12-25T12:09:22.281Z,4.00
2022-12-25T12:12:27.294Z,4.20
2022-12-25T12:15:34.597Z,4.00
2022-12-25T12:18:23.526Z,4.30
2022-12-25T12:20:59.418Z,3.90
2022-12-25T12:23:29.457Z,4.70
2022-12-25T12:25:57.462Z,4.60
2022-12-25T12:28:30.283Z,4.70
2022-12-25T12:31:04.978Z,3.80
2022-12-25T12:33:42.753Z,5.10
2022-12-25T12:36:14.512Z,4.00
2022-12-25T12:38:44.353Z,4.10
2022-12-25T12:41:14.292Z,4.00
2022-12-25T12:44:16.254Z,4.60
2022-12-25T12:46:54.919Z,4.50
2022-12-25T12:49:29.587Z,4.40
2022-12-25T12:52:21.415Z,4.70
2022-12-25T12:55:00.329Z,4.30
2022-12-25T12:57:32.930Z,4.40
2022-12-25T13:00:08.419Z,4.70
2022-12-25T13:03:31.698Z,4.60
2022-12-25T13:06:21.062Z,4.40
2022-12-25T13:09:21.126Z,3.90
2022-12-25T13:11:49.399Z,4.20
2022-12-25T13:14:22.093Z,4.20
2022-12-25T13:16:53.200Z,3.90
2022-12-25T13:19:24.872Z,3.80
2022-12-25T13:22:05.336Z,3.20
2022-12-25T13:24:36.099Z,3.60
2022-12-25T13:27:29.913Z,3.70
2022-12-25T13:29:58.553Z,3.70
2022-12-25T13:32:32.590Z,3.80
2022-12-25T13:35:00.506Z,4.10
2022-12-25T13:37:30.893Z,3.40
2022-12-25T13:40:01.594Z,3.50
2022-12-25T13:42:39.940Z,3.30
2022-12-25T13:45:23.562Z,3.60
2022-12-25T13:47:55.571Z,3.30
2022-12-25T13:50:26.598Z,3.20
2022-12-25T13:52:56.900Z,3.40
2022-12-25T13:55:29.532Z,3.60
2022-12-25T13:58:00.454Z,3.50
2022-12-25T14:00:47.516Z,3.40
2022-12-25T14:03:22.893Z,2.90
2022-12-25T14:06:16.534Z,3.50
2022-12-25T14:08:45.223Z,3.50
2022-12-25T14:11:16.485Z,3.50
2022-12-25T14:16:17.459Z,3.20
2022-12-25T14:18:56.064Z,3.30
2022-12-25T14:21:49.313Z,3.10
2022-12-25T14:24:17.958Z,3.40
2022-12-25T14:26:45.394Z,3.30
2022-12-25T14:29:23.645Z,2.90
2022-12-25T14:31:58.084Z,3.10
2022-12-25T14:34:27.692Z,3.20
2022-12-25T14:36:55.632Z,2.90
2022-12-25T14:39:28.389Z,2.90
2022-12-25T14:41:56.353Z,3.40
2022-12-25T14:44:39.578Z,2.90
2022-12-25T14:47:19.940Z,3.00
2022-12-25T14:49:48.148Z,3.40
2022-12-25T14:52:26.587Z,3.20
2022-12-25T14:55:07.224Z,3.20
2022-12-25T14:57:39.355Z,3.00
2022-12-25T15:00:29.269Z,2.80
2022-12-25T15:02:59.469Z,3.00
2022-12-25T15:05:38.892Z,3.00
2022-12-25T15:08:10.370Z,3.20
2022-12-25T15:10:59.772Z,3.10
2022-12-25T15:13:28.553Z,3.40
2022-12-25T15:16:07.909Z,3.50
2022-12-25T15:18:42.289Z,3.70
2022-12-25T15:21:30.841Z,3.50
2022-12-25T15:23:59.913Z,3.90
2022-12-25T15:26:30.280Z,3.30
2022-12-25T15:28:58.655Z,3.30
2022-12-25T15:31:32.160Z,3.90
2022-12-25T15:34:05.133Z,4.00
2022-12-25T15:36:34.069Z,3.30
2022-12-25T15:39:01.573Z,3.20
2022-12-25T15:41:53.195Z,3.80
2022-12-25T15:44:21.728Z,3.30
2022-12-25T15:46:49.815Z,3.30
2022-12-25T15:49:17.995Z,3.70
2022-12-25T15:51:46.280Z,3.50
2022-12-25T15:54:13.843Z,3.40
2022-12-25T15:56:51.136Z,3.60
2022-12-25T15:59:19.978Z,3.60
2022-12-25T16:01:56.525Z,3.80
2022-12-25T16:04:26.081Z,3.40
2022-12-25T16:06:55.395Z,3.30
2022-12-25T16:09:23.361Z,3.40
2022-12-25T16:11:50.862Z,3.50
2022-12-25T16:14:19.580Z,3.90
2022-12-25T16:16:47.084Z,3.00
2022-12-25T16:19:14.541Z,3.90
2022-12-25T16:21:46.650Z,3.50
2022-12-25T16:24:14.750Z,4.00
2022-12-25T16:26:43.163Z,3.70
2022-12-25T16:29:11.183Z,4.40
2022-12-25T16:31:40.003Z,3.90
2022-12-25T16:34:08.498Z,3.90
2022-12-25T16:36:36.640Z,3.80
2022-12-25T16:39:05.464Z,3.90
2022-12-25T16:41:33.426Z,4.00
2022-12-25T16:44:09.492Z,4.10
2022-12-25T16:46:38.251Z,4.60
2022-12-25T16:49:05.982Z,4.50
2022-12-25T16:51:33.526Z,3.90
2022-12-25T16:54:01.138Z,4.40
2022-12-25T16:56:30.629Z,4.50
2022-12-25T16:58:59.162Z,4.50
2022-12-25T17:01:26.635Z,4.60
2022-12-25T17:03:54.293Z,4.70
2022-12-25T17:06:25.872Z,3.90
2022-12-25T17:08:58.618Z,3.80
2022-12-25T17:11:30.749Z,4.20
2022-12-25T17:14:03.641Z,3.60
2022-12-25T17:16:36.955Z,4.30
2022-12-25T17:19:15.976Z,4.50
2022-12-25T17:21:43.414Z,4.00
2022-12-25T17:24:11.195Z,4.10
2022-12-25T17:26:41.493Z,3.90
2022-12-25T17:29:09.080Z,4.50
2022-12-25T17:31:38.102Z,4.40
2022-12-25T17:34:08.223Z,4.20
2022-12-25T17:36:36.534Z,4.30
2022-12-25T17:39:06.092Z,4.20
2022-12-25T17:41:33.748Z,4.70
2022-12-25T17:44:01.318Z,5.40
2022-12-25T17:46:30.621Z,5.20
2022-12-25T17:49:00.631Z,5.00
2022-12-25T17:51:31.254Z,6.40
2022-12-25T17:54:04.689Z,5.60
2022-12-25T17:56:33.290Z,5.20
2022-12-25T17:59:06.902Z,5.30
2022-12-25T18:01:37.642Z,5.00
2022-12-25T18:04:06.574Z,4.80
2022-12-25T18:06:36.642Z,5.10
2022-12-25T18:09:06.280Z,5.00
2022-12-25T18:11:33.997Z,5.10
2022-12-25T18:14:06.273Z,5.10
2022-12-25T18:16:37.336Z,4.40
2022-12-25T18:19:05.541Z,4.60
2022-12-25T18:21:33.000Z,4.70
2022-12-25T18:24:03.223Z,4.80
2022-12-25T18:26:30.759Z,4.30
2022-12-25T18:28:58.536Z,4.40
2022-12-25T18:31:30.502Z,4.70
2022-12-25T18:33:59.801Z,4.90
2022-12-25T18:36:29.703Z,4.20
2022-12-25T18:38:57.586Z,4.30
2022-12-25T18:41:27.604Z,4.90
2022-12-25T18:43:55.982Z,4.40
2022-12-25T18:46:26.101Z,4.60
2022-12-25T18:48:55.716Z,4.40
2022-12-25T18:51:23.681Z,4.20
2022-12-25T18:53:51.793Z,3.70
2022-12-25T18:56:19.522Z,4.30
2022-12-25T18:58:47.388Z,3.80
2022-12-25T19:01:19.958Z,4.10
2022-12-25T19:03:49.306Z,4.20
2022-12-25T19:06:26.755Z,4.20
2022-12-25T19:08:55.779Z,4.40
2022-12-25T19:11:23.328Z,4.10
2022-12-25T19:13:50.791Z,4.40
2022-12-25T19:16:18.320Z,3.50
2022-12-25T19:18:45.786Z,4.00
2022-12-25T19:21:13.377Z,4.10
2022-12-25T19:23:40.787Z,3.60
2022-12-25T19:26:10.526Z,4.00
2022-12-25T19:28:38.834Z,4.30
2022-12-25T19:31:08.735Z,3.50
2022-12-25T19:33:38.752Z,3.80
2022-12-25T19:36:10.707Z,3.90
2022-12-25T19:38:38.417Z,3.90
2022-12-25T19:41:13.972Z,4.00
2022-12-25T19:43:43.207Z,4.00
2022-12-25T19:46:18.016Z,4.10
2022-12-25T19:48:45.762Z,4.30
2022-12-25T19:51:26.518Z,4.40
2022-12-25T19:53:56.331Z,4.00
2022-12-25T19:56:26.247Z,4.20
2022-12-25T19:58:54.646Z,4.30
2022-12-25T20:01:25.732Z,4.30
2022-12-25T20:03:53.788Z,3.90
2022-12-25T20:06:32.137Z,4.40
2022-12-25T20:09:05.416Z,5.60
2022-12-25T20:11:35.367Z,4.50
2022-12-25T20:14:03.641Z,4.50
2022-12-25T20:16:31.836Z,4.90
2022-12-25T20:18:59.707Z,4.60
2022-12-25T20:21:27.559Z,4.40
2022-12-25T20:23:55.019Z,4.70
2022-12-25T20:26:26.437Z,4.20
2022-12-25T20:28:54.404Z,4.40
2022-12-25T20:31:27.386Z,4.40
2022-12-25T20:33:58.110Z,4.20
2022-12-25T20:36:31.046Z,4.40
2022-12-25T20:39:01.943Z,3.80
2022-12-25T20:41:30.045Z,3.90
2022-12-25T20:43:58.371Z,3.40
2022-12-25T20:46:26.518Z,3.60
2022-12-25T20:48:54.440Z,3.90
2022-12-25T20:51:24.849Z,4.00
2022-12-25T20:53:52.577Z,3.70
2022-12-25T20:56:23.177Z,3.70
2022-12-25T20:58:59.488Z,4.00
2022-12-25T21:01:30.344Z,3.50
2022-12-25T21:03:58.895Z,4.40
2022-12-25T21:06:26.563Z,4.10
2022-12-25T21:08:54.541Z,4.50
2022-12-25T21:11:22.060Z,4.40
2022-12-25T21:13:50.046Z,3.80
2022-12-25T21:16:22.174Z,4.10
2022-12-25T21:18:52.384Z,4.20
2022-12-25T21:21:21.145Z,3.60
2022-12-25T21:23:48.603Z,4.20
2022-12-25T21:26:22.892Z,4.10
2022-12-25T21:28:55.120Z,3.80
2022-12-25T21:31:23.556Z,4.50
2022-12-25T21:33:54.993Z,4.20
2022-12-25T21:36:33.499Z,4.00
2022-12-25T21:39:06.082Z,3.90
2022-12-25T21:41:39.514Z,3.40
2022-12-25T21:44:08.638Z,3.80
2022-12-25T21:46:36.165Z,3.60
2022-12-25T21:49:03.724Z,4.50
2022-12-25T21:51:52.023Z,4.00
2022-12-25T21:54:22.515Z,4.30
2022-12-25T21:56:50.750Z,4.50
2022-12-25T21:59:21.432Z,4.80
2022-12-25T22:01:50.810Z,4.10
2022-12-25T22:04:22.088Z,4.10
2022-12-25T22:07:08.205Z,3.90
2022-12-25T22:09:36.127Z,3.60
2022-12-25T22:12:22.906Z,4.40
2022-12-25T22:14:54.733Z,4.40
2022-12-25T22:17:46.056Z,4.10
2022-12-25T22:20:21.807Z,3.40
2022-12-25T22:22:49.593Z,3.50
2022-12-25T22:25:18.426Z,4.20
2022-12-25T22:27:47.827Z,4.20
2022-12-25T22:30:22.831Z,3.50
2022-12-25T22:32:52.008Z,4.30
2022-12-25T22:35:20.676Z,3.70
2022-12-25T22:37:49.540Z,3.50
2022-12-25T22:40:19.950Z,3.10
2022-12-25T22:42:47.738Z,3.10
2022-12-25T22:45:15.228Z,3.80
2022-12-25T22:47:42.763Z,3.50
2022-12-25T22:50:15.120Z,3.60
2022-12-25T22:52:42.991Z,3.60
2022-12-25T22:55:10.975Z,4.90
2022-12-25T22:57:38.341Z,3.30
2022-12-25T23:00:09.010Z,3.20
2022-12-25T23:02:36.763Z,2.70
2022-12-25T23:05:04.989Z,3.50
2022-12-25T23:07:32.419Z,3.60
2022-12-25T23:09:59.889Z,3.00
2022-12-25T23:12:46.239Z,3.20
2022-12-25T23:15:13.696Z,3.20
2022-12-25T23:17:59.885Z,3.30
2022-12-25T23:20:45.895Z,2.80
2022-12-25T23:23:35.046Z,3.50
2022-12-25T23:26:09.861Z,2.90
2022-12-25T23:28:58.181Z,2.80
2022-12-25T23:31:36.059Z,3.20
2022-12-25T23:34:05.261Z,3.40
2022-12-25T23:36:33.663Z,3.90
2022-12-25T23:39:08.976Z,3.40
2022-12-25T23:41:39.587Z,3.60
2022-12-25T23:44:08.290Z,3.20
2022-12-25T23:46:37.391Z,4.00
2022-12-25T23:49:05.280Z,3.30
2022-12-25T23:51:35.093Z,3.90
2022-12-25T23:54:04.890Z,3.10
2022-12-25T23:56:32.831Z,2.80
2022-12-25T23:59:00.299Z,2.90
